createdAt,value
2022-12-13T00:01:17.656Z,98664.88
2022-12-13T00:03:45.201Z,98658.81
2022-12-13T00:06:13.011Z,98659.66
2022-12-13T00:08:39.865Z,98649.41
2022-12-13T00:11:09.009Z,98649.41
2022-12-13T00:13:35.465Z,98656.28
2022-12-13T00:16:06.170Z,98652.03
2022-12-13T00:18:33.751Z,98647.78
2022-12-13T00:21:04.208Z,98648.69
2022-12-13T00:23:30.810Z,98656.41
2022-12-13T00:26:10.235Z,98650.50
2022-12-13T00:28:37.634Z,98647.03
2022-12-13T00:31:20.062Z,98646.19
2022-12-13T00:33:51.109Z,98641.09
2022-12-13T00:36:18.694Z,98637.78
2022-12-13T00:38:45.677Z,98636.94
2022-12-13T00:41:16.434Z,98637.78
2022-12-13T00:43:43.498Z,98636.06
2022-12-13T00:46:18.991Z,98642.06
2022-12-13T00:48:50.996Z,98639.53
2022-12-13T00:51:18.958Z,98643.75
2022-12-13T00:53:45.662Z,98638.63
2022-12-13T00:56:14.472Z,98634.31
2022-12-13T00:58:43.367Z,98638.66
2022-12-13T01:01:15.803Z,98636.16
2022-12-13T01:03:43.483Z,98628.47
2022-12-13T01:06:19.044Z,98641.28
2022-12-13T01:08:49.549Z,98632.72
2022-12-13T01:11:18.198Z,98629.31
2022-12-13T01:13:45.932Z,98636.16
2022-12-13T01:16:13.573Z,98637.91
2022-12-13T01:18:41.307Z,98641.44
2022-12-13T01:21:12.029Z,98634.59
2022-12-13T01:23:38.968Z,98626.91
2022-12-13T01:26:07.511Z,98626.06
2022-12-13T01:28:34.184Z,98636.28
2022-12-13T01:31:05.820Z,98644.00
2022-12-13T01:33:33.403Z,98632.94
2022-12-13T01:36:06.890Z,98634.72
2022-12-13T01:38:37.794Z,98631.28
2022-12-13T01:41:16.771Z,98631.25
2022-12-13T01:43:49.129Z,98630.38
2022-12-13T01:46:18.175Z,98627.00
2022-12-13T01:48:50.934Z,98629.56
2022-12-13T01:51:21.482Z,98627.81
2022-12-13T01:53:50.227Z,98626.09
2022-12-13T01:56:31.687Z,98626.16
2022-12-13T01:59:00.379Z,98622.75
2022-12-13T02:01:28.716Z,98621.94
2022-12-13T02:03:55.648Z,98621.09
2022-12-13T02:06:39.884Z,98622.81
2022-12-13T02:09:08.255Z,98619.47
2022-12-13T02:11:37.672Z,98620.28
2022-12-13T02:14:05.550Z,98621.16
2022-12-13T02:16:50.614Z,98611.75
2022-12-13T02:19:49.756Z,98614.38
2022-12-13T02:22:34.688Z,98614.38
2022-12-13T02:25:16.924Z,98604.97
2022-12-13T02:28:31.872Z,98619.50
2022-12-13T02:31:32.431Z,98606.69
2022-12-13T02:34:09.939Z,98606.75
2022-12-13T02:37:18.071Z,98605.94
2022-12-13T02:39:56.746Z,98602.56
2022-12-13T02:42:33.319Z,98608.56
2022-12-13T02:45:17.168Z,98612.84
2022-12-13T02:47:49.393Z,98604.31
2022-12-13T02:50:16.363Z,98609.44
2022-12-13T02:52:46.627Z,98608.63
2022-12-13T02:55:15.570Z,98610.34
2022-12-13T02:57:43.512Z,98601.00
2022-12-13T03:00:15.798Z,98606.13
2022-12-13T03:02:48.456Z,98610.47
2022-12-13T03:05:44.815Z,98613.16
2022-12-13T03:08:29.637Z,98605.47
2022-12-13T03:11:13.118Z,98609.69
2022-12-13T03:13:56.081Z,98601.16
2022-12-13T03:16:43.872Z,98597.72
2022-12-13T03:19:12.804Z,98590.94
2022-12-13T03:21:45.710Z,98603.69
2022-12-13T03:24:17.153Z,98596.03
2022-12-13T03:26:43.983Z,98594.31
2022-12-13T03:29:10.965Z,98598.63
2022-12-13T03:31:37.650Z,98592.66
2022-12-13T03:34:04.396Z,98599.50
2022-12-13T03:36:31.244Z,98601.28
2022-12-13T03:39:08.912Z,98600.47
2022-12-13T03:41:39.155Z,98599.59
2022-12-13T03:44:07.962Z,98603.06
2022-12-13T03:46:36.195Z,98595.31
2022-12-13T03:49:02.929Z,98594.47
2022-12-13T03:51:29.566Z,98584.16
2022-12-13T03:53:56.264Z,98579.09
2022-12-13T03:56:23.084Z,98582.50
2022-12-13T03:58:50.202Z,98576.47
2022-12-13T04:01:19.159Z,98584.22
2022-12-13T04:03:46.779Z,98584.25
2022-12-13T04:06:22.439Z,98582.59
2022-12-13T04:08:52.258Z,98575.72
2022-12-13T04:11:42.705Z,98572.28
2022-12-13T04:14:11.522Z,98574.88
2022-12-13T04:16:38.269Z,98571.50
2022-12-13T04:19:05.004Z,98580.09
2022-12-13T04:21:31.721Z,98582.69
2022-12-13T04:24:00.930Z,98580.09
2022-12-13T04:26:28.561Z,98575.84
2022-12-13T04:28:55.286Z,98580.97
2022-12-13T04:31:22.227Z,98575.91
2022-12-13T04:33:49.004Z,98585.31
2022-12-13T04:36:30.936Z,98580.09
2022-12-13T04:39:02.420Z,98580.97
2022-12-13T04:41:34.526Z,98576.75
2022-12-13T04:44:02.129Z,98575.94
2022-12-13T04:46:31.797Z,98580.22
2022-12-13T04:48:58.624Z,98578.56
2022-12-13T04:51:25.688Z,98579.44
2022-12-13T04:53:52.656Z,98576.03
2022-12-13T04:56:19.992Z,98582.00
2022-12-13T04:58:46.949Z,98573.50
2022-12-13T05:01:13.766Z,98579.47
2022-12-13T05:03:40.689Z,98576.84
2022-12-13T05:06:26.737Z,98573.38
2022-12-13T05:08:55.078Z,98586.19
2022-12-13T05:11:28.075Z,98583.59
2022-12-13T05:14:02.811Z,98580.19
2022-12-13T05:16:29.603Z,98588.66
2022-12-13T05:18:56.391Z,98580.97
2022-12-13T05:21:23.027Z,98580.94
2022-12-13T05:23:49.797Z,98583.53
2022-12-13T05:26:17.350Z,98580.97
2022-12-13T05:28:44.398Z,98588.63
2022-12-13T05:31:22.983Z,98589.53
2022-12-13T05:33:54.988Z,98596.34
2022-12-13T05:36:29.244Z,98597.22
2022-12-13T05:38:56.147Z,98589.53
2022-12-13T05:41:27.986Z,98597.16
2022-12-13T05:43:55.088Z,98584.44
2022-12-13T05:46:21.740Z,98583.59
2022-12-13T05:48:48.546Z,98585.25
2022-12-13T05:51:17.601Z,98579.31
2022-12-13T05:53:47.303Z,98576.81
2022-12-13T05:56:22.885Z,98578.50
2022-12-13T05:58:53.355Z,98575.94
2022-12-13T06:01:23.703Z,98581.06
2022-12-13T06:03:50.536Z,98583.69
2022-12-13T06:06:21.214Z,98587.06
2022-12-13T06:08:51.038Z,98582.81
2022-12-13T06:11:31.261Z,98593.91
2022-12-13T06:14:00.921Z,98584.53
2022-12-13T06:16:28.253Z,98587.91
2022-12-13T06:21:40.683Z,98591.38
2022-12-13T06:24:10.704Z,98582.81
2022-12-13T06:40:01.006Z,98598.22
2022-12-13T06:42:31.829Z,98590.53
2022-12-13T06:44:58.448Z,98582.88
2022-12-13T06:47:30.968Z,98593.09
2022-12-13T06:49:59.136Z,98591.41
2022-12-13T06:52:32.585Z,98589.69
2022-12-13T06:55:00.057Z,98596.53
2022-12-13T06:57:26.758Z,98599.09
2022-12-13T06:59:53.434Z,98593.97
2022-12-13T07:02:24.631Z,98591.41
2022-12-13T07:04:52.091Z,98592.25
2022-12-13T07:07:18.719Z,98591.44
2022-12-13T07:09:45.396Z,98594.91
2022-12-13T07:12:14.447Z,98596.66
2022-12-13T07:14:41.453Z,98590.72
2022-12-13T07:25:28.692Z,98600.09
2022-12-13T07:28:07.793Z,98596.63
2022-12-13T07:30:40.594Z,98595.75
2022-12-13T07:33:09.390Z,98603.41
2022-12-13T07:35:36.907Z,98606.88
2022-12-13T07:38:04.650Z,98602.59
2022-12-13T07:40:33.756Z,98607.72
2022-12-13T07:43:00.465Z,98615.38
2022-12-13T07:45:27.334Z,98601.69
2022-12-13T07:47:53.986Z,98600.78
2022-12-13T07:53:08.761Z,98611.03
2022-12-13T07:55:36.726Z,98615.25
2022-12-13T07:58:09.391Z,98614.50
2022-12-13T08:00:37.559Z,98613.63
2022-12-13T08:03:05.768Z,98616.19
2022-12-13T08:05:38.337Z,98610.19
2022-12-13T08:08:07.456Z,98604.16
2022-12-13T08:10:34.154Z,98619.50
2022-12-13T08:13:03.921Z,98607.50
2022-12-13T08:15:30.653Z,98611.78
2022-12-13T08:17:58.234Z,98607.50
2022-12-13T08:20:24.904Z,98618.53
2022-12-13T08:23:01.651Z,98616.81
2022-12-13T08:25:30.274Z,98614.25
2022-12-13T08:28:01.698Z,98609.97
2022-12-13T08:30:30.530Z,98611.59
2022-12-13T08:32:57.688Z,98606.44
2022-12-13T08:35:32.077Z,98615.81
2022-12-13T08:38:01.003Z,98609.00
2022-12-13T08:40:27.752Z,98609.81
2022-12-13T08:42:55.578Z,98608.03
2022-12-13T08:45:24.043Z,98614.81
2022-12-13T08:47:50.634Z,98614.81
2022-12-13T08:50:17.353Z,98620.00
2022-12-13T08:52:45.022Z,98611.41
2022-12-13T08:55:13.300Z,98615.59
2022-12-13T08:57:41.325Z,98613.88
2022-12-13T09:00:11.598Z,98613.81
2022-12-13T09:02:38.960Z,98616.28
2022-12-13T09:05:07.804Z,98614.56
2022-12-13T09:07:40.990Z,98617.91
2022-12-13T09:10:26.897Z,98619.56
2022-12-13T09:13:01.282Z,98617.75
2022-12-13T09:15:34.452Z,98621.16
2022-12-13T09:18:04.147Z,98620.22
2022-12-13T09:20:32.343Z,98626.16
2022-12-13T09:23:13.686Z,98614.97
2022-12-13T09:26:05.839Z,98621.88
2022-12-13T09:28:34.967Z,98624.31
2022-12-13T09:31:01.831Z,98623.41
2022-12-13T09:33:30.621Z,98618.16
2022-12-13T09:35:57.865Z,98617.22
2022-12-13T09:38:24.453Z,98616.31
2022-12-13T09:40:58.884Z,98612.03
2022-12-13T09:43:32.450Z,98617.03
2022-12-13T09:46:13.364Z,98610.25
2022-12-13T09:49:01.093Z,98610.94
2022-12-13T09:51:43.831Z,98602.28
2022-12-13T09:54:20.651Z,98604.72
2022-12-13T09:56:51.101Z,98601.19
2022-12-13T09:59:28.910Z,98601.13
2022-12-13T10:01:57.471Z,98592.50
2022-12-13T10:04:24.164Z,98589.06
2022-12-13T10:06:54.704Z,98588.97
2022-12-13T10:09:21.690Z,98587.13
2022-12-13T10:11:51.223Z,98584.44
2022-12-13T10:14:37.332Z,98568.91
2022-12-13T10:17:08.473Z,98577.47
2022-12-13T10:19:41.647Z,98573.94
2022-12-13T10:22:13.449Z,98569.63
2022-12-13T10:24:56.558Z,98572.84
2022-12-13T10:27:34.773Z,98565.03
2022-12-13T10:30:12.529Z,98555.41
2022-12-13T10:32:53.927Z,98566.44
2022-12-13T10:35:20.804Z,98568.88
2022-12-13T10:37:47.558Z,98557.59
2022-12-13T10:40:33.908Z,98556.53
2022-12-13T10:43:21.157Z,98563.84
2022-12-13T10:45:54.201Z,98558.56
2022-12-13T10:48:27.065Z,98562.69
2022-12-13T10:51:02.931Z,98556.59
2022-12-13T10:53:34.223Z,98549.56
2022-12-13T10:56:02.648Z,98546.88
2022-12-13T10:58:41.644Z,98543.28
2022-12-13T11:01:11.973Z,98537.84
2022-12-13T11:03:38.866Z,98536.91
2022-12-13T11:06:15.432Z,98533.34
2022-12-13T11:08:42.109Z,98534.94
2022-12-13T11:11:10.049Z,98534.81
2022-12-13T11:13:47.163Z,98532.03
2022-12-13T11:16:34.125Z,98524.88
2022-12-13T11:19:05.945Z,98522.16
2022-12-13T11:21:36.769Z,98511.69
2022-12-13T11:24:08.542Z,98508.00
2022-12-13T11:26:38.417Z,98510.34
2022-12-13T11:29:42.930Z,98505.78
2022-12-13T11:32:22.547Z,98495.31
2022-12-13T11:34:58.826Z,98501.16
2022-12-13T11:37:31.356Z,98498.34
2022-12-13T11:40:05.261Z,98493.03
2022-12-13T11:42:55.899Z,98485.09
2022-12-13T11:45:29.744Z,98482.22
2022-12-13T11:48:18.000Z,98487.28
2022-12-13T11:50:48.541Z,98476.78
2022-12-13T11:53:41.678Z,98475.59
2022-12-13T11:56:23.914Z,98477.78
2022-12-13T11:59:19.083Z,98466.22
2022-12-13T12:02:16.733Z,98469.31
2022-12-13T12:05:00.449Z,98463.13
2022-12-13T12:11:44.760Z,98442.63
2022-12-13T12:14:36.271Z,98439.78
2022-12-13T12:17:04.175Z,98435.25
2022-12-13T12:19:44.020Z,98437.63
2022-12-13T12:22:28.736Z,98443.34
2022-12-13T12:25:10.656Z,98445.56
2022-12-13T12:28:02.050Z,98439.19
2022-12-13T12:30:38.055Z,98448.38
2022-12-13T12:33:33.767Z,98445.22
2022-12-13T12:36:06.317Z,98439.03
2022-12-13T12:38:54.155Z,98446.25
2022-12-13T12:41:20.705Z,98434.63
2022-12-13T12:44:09.647Z,98436.97
2022-12-13T12:47:01.472Z,98427.97
2022-12-13T12:49:47.552Z,98429.78
2022-12-13T12:52:15.009Z,98426.03
2022-12-13T12:55:18.818Z,98412.34
2022-12-13T12:57:57.455Z,98419.47
2022-12-13T13:00:36.055Z,98426.34
2022-12-13T13:03:24.273Z,98428.00
2022-12-13T13:06:03.067Z,98422.78
2022-12-13T13:08:37.603Z,98422.00
2022-12-13T13:11:06.407Z,98423.66
2022-12-13T13:14:01.771Z,98426.56
2022-12-13T13:16:39.561Z,98412.81
2022-12-13T13:19:11.889Z,98416.84
2022-12-13T13:21:47.364Z,98414.25
2022-12-13T13:24:19.915Z,98410.97
2022-12-13T13:26:52.447Z,98425.16
2022-12-13T13:29:26.572Z,98422.81
2022-12-13T13:32:01.149Z,98426.16
2022-12-13T13:34:43.389Z,98428.16
2022-12-13T13:37:23.072Z,98420.88
2022-12-13T13:39:52.723Z,98414.44
2022-12-13T13:42:29.509Z,98417.88
2022-12-13T13:45:22.883Z,98415.66
2022-12-13T13:47:59.601Z,98416.84
2022-12-13T13:51:01.062Z,98411.88
2022-12-13T13:53:33.532Z,98415.41
2022-12-13T13:56:10.280Z,98419.63
2022-12-13T13:58:42.822Z,98414.56
2022-12-13T14:01:12.515Z,98429.06
2022-12-13T14:04:04.027Z,98433.16
2022-12-13T14:07:01.306Z,98428.16
2022-12-13T14:10:03.921Z,98420.34
2022-12-13T14:13:20.888Z,98421.13
2022-12-13T14:15:53.272Z,98415.13
2022-12-13T14:18:58.217Z,98414.66
2022-12-13T14:21:40.120Z,98419.41
2022-12-13T14:24:16.550Z,98414.28
2022-12-13T14:27:13.492Z,98414.91
2022-12-13T14:29:48.225Z,98416.91
2022-12-13T14:32:28.562Z,98416.06
2022-12-13T14:34:59.564Z,98427.59
2022-12-13T14:38:05.061Z,98426.25
2022-12-13T14:40:48.160Z,98420.53
2022-12-13T14:43:32.057Z,98412.41
2022-12-13T14:46:01.107Z,98410.13
2022-12-13T14:48:37.771Z,98412.44
2022-12-13T14:51:04.821Z,98414.56
2022-12-13T14:53:37.824Z,98400.53
2022-12-13T14:56:04.528Z,98412.25
2022-12-13T14:58:31.335Z,98398.75
2022-12-13T15:00:58.069Z,98405.28
2022-12-13T15:03:27.578Z,98410.53
2022-12-13T15:06:00.288Z,98407.69
2022-12-13T15:08:27.861Z,98406.03
2022-12-13T15:10:57.827Z,98407.78
2022-12-13T15:13:36.251Z,98402.38
2022-12-13T15:16:28.311Z,98409.41
2022-12-13T15:19:30.855Z,98408.00
2022-12-13T15:22:05.428Z,98401.50
2022-12-13T15:24:34.703Z,98393.13
2022-12-13T15:27:02.678Z,98400.50
2022-12-13T15:29:35.579Z,98401.59
2022-12-13T15:32:03.585Z,98401.91
2022-12-13T15:34:31.106Z,98409.13
2022-12-13T15:37:28.495Z,98396.84
2022-12-13T15:40:01.394Z,98399.56
2022-12-13T15:42:35.776Z,98406.75
2022-12-13T15:45:33.345Z,98403.59
2022-12-13T15:48:04.601Z,98402.22
2022-12-13T15:50:38.508Z,98405.03
2022-12-13T15:53:19.983Z,98414.03
2022-12-13T15:55:46.848Z,98410.63
2022-12-13T15:58:25.668Z,98414.38
2022-12-13T16:00:52.676Z,98410.25
2022-12-13T16:03:24.652Z,98413.09
2022-12-13T16:05:55.152Z,98414.16
2022-12-13T16:08:35.648Z,98414.34
2022-12-13T16:11:02.676Z,98411.94
2022-12-13T16:13:36.196Z,98413.06
2022-12-13T16:16:27.975Z,98414.97
2022-12-13T16:19:00.228Z,98403.84
2022-12-13T16:21:28.298Z,98401.34
2022-12-13T16:23:54.956Z,98405.13
2022-12-13T16:26:29.611Z,98398.44
2022-12-13T16:28:59.445Z,98388.19
2022-12-13T16:31:35.805Z,98395.16
2022-12-13T16:34:04.015Z,98391.09
2022-12-13T16:36:30.827Z,98387.00
2022-12-13T16:38:57.703Z,98382.00
2022-12-13T16:41:25.064Z,98386.66
2022-12-13T16:43:56.563Z,98382.56
2022-12-13T16:47:16.974Z,98371.66
2022-12-13T16:49:26.222Z,98368.53
2022-12-13T16:51:53.790Z,98379.81
2022-12-13T16:54:21.931Z,98377.38
2022-12-13T16:56:49.457Z,98384.44
2022-12-13T16:59:18.633Z,98382.72
2022-12-13T17:01:46.132Z,98376.88
2022-12-13T17:04:19.672Z,98380.56
2022-12-13T17:06:48.482Z,98384.22
2022-12-13T17:09:15.108Z,98382.53
2022-12-13T17:11:41.762Z,98378.38
2022-12-13T17:14:08.529Z,98387.94
2022-12-13T17:16:35.273Z,98382.88
2022-12-13T17:19:02.244Z,98383.09
2022-12-13T17:21:29.907Z,98385.72
2022-12-13T17:24:01.700Z,98375.38
2022-12-13T17:26:29.211Z,98368.53
2022-12-13T17:28:56.212Z,98378.13
2022-12-13T17:31:22.952Z,98385.13
2022-12-13T17:33:49.658Z,98381.84
2022-12-13T17:36:16.591Z,98372.31
2022-12-13T17:38:48.026Z,98368.06
2022-12-13T17:41:18.295Z,98370.91
2022-12-13T17:43:45.155Z,98371.91
2022-12-13T17:46:14.719Z,98366.91
2022-12-13T17:48:41.970Z,98368.78
2022-12-13T17:51:11.090Z,98355.91
2022-12-13T17:53:40.399Z,98349.06
2022-12-13T17:56:08.529Z,98347.53
2022-12-13T17:58:35.636Z,98343.22
2022-12-13T18:01:24.147Z,98346.81
2022-12-13T18:03:55.721Z,98357.16
2022-12-13T18:06:24.362Z,98353.00
2022-12-13T18:08:50.994Z,98355.63
2022-12-13T18:11:35.334Z,98353.94
2022-12-13T18:14:03.833Z,98357.53
2022-12-13T18:16:37.080Z,98367.75
2022-12-13T18:19:07.784Z,98368.56
2022-12-13T18:21:35.640Z,98359.09
2022-12-13T18:24:02.789Z,98364.31
2022-12-13T18:26:29.602Z,98368.69
2022-12-13T18:28:56.289Z,98361.81
2022-12-13T18:31:24.847Z,98376.41
2022-12-13T18:33:53.536Z,98374.72
2022-12-13T18:36:22.905Z,98376.44
2022-12-13T18:38:50.241Z,98377.31
2022-12-13T18:41:20.256Z,98361.81
2022-12-13T18:43:47.692Z,98359.31
2022-12-13T18:46:15.971Z,98356.75
2022-12-13T18:48:42.832Z,98358.66
2022-12-13T18:51:10.547Z,98360.44
2022-12-13T18:53:38.517Z,98356.34
2022-12-13T18:56:17.907Z,98354.97
2022-12-13T18:58:46.488Z,98356.75
2022-12-13T19:01:14.279Z,98349.88
2022-12-13T19:03:43.826Z,98355.75
2022-12-13T19:06:24.143Z,98355.72
2022-12-13T19:08:53.167Z,98349.75
2022-12-13T19:11:20.485Z,98351.44
2022-12-13T19:13:47.547Z,98354.78
2022-12-13T19:16:16.557Z,98342.75
2022-12-13T19:18:43.656Z,98342.72
2022-12-13T19:21:14.918Z,98335.84
2022-12-13T19:23:42.502Z,98327.22
2022-12-13T19:26:14.114Z,98329.09
2022-12-13T19:28:42.595Z,98329.09
2022-12-13T19:31:11.652Z,98331.75
2022-12-13T19:33:40.961Z,98327.63
2022-12-13T19:36:13.072Z,98328.72
2022-12-13T19:38:40.808Z,98329.56
2022-12-13T19:41:14.417Z,98320.88
2022-12-13T19:43:41.911Z,98326.88
2022-12-13T19:46:10.092Z,98327.69
2022-12-13T19:48:40.079Z,98325.88
2022-12-13T19:51:08.960Z,98320.75
2022-12-13T19:53:37.652Z,98322.59
2022-12-13T19:56:12.274Z,98324.16
2022-12-13T19:58:40.091Z,98315.69
2022-12-13T20:01:08.181Z,98313.84
2022-12-13T20:03:40.213Z,98307.78
2022-12-13T20:06:09.082Z,98316.44
2022-12-13T20:08:36.003Z,98309.53
2022-12-13T20:11:11.441Z,98316.41
2022-12-13T20:13:38.014Z,98313.94
2022-12-13T20:16:05.497Z,98308.69
2022-12-13T20:18:33.417Z,98301.78
2022-12-13T20:21:13.777Z,98308.91
2022-12-13T20:23:49.454Z,98317.56
2022-12-13T20:26:21.656Z,98320.19
2022-12-13T20:28:49.815Z,98319.38
2022-12-13T20:31:22.542Z,98316.81
2022-12-13T20:33:53.316Z,98320.19
2022-12-13T20:36:25.304Z,98315.00
2022-12-13T20:38:55.246Z,98311.50
2022-12-13T20:41:22.179Z,98308.84
2022-12-13T20:43:51.844Z,98302.94
2022-12-13T20:46:18.732Z,98296.97
2022-12-13T20:48:46.740Z,98298.69
2022-12-13T20:51:15.909Z,98298.72
2022-12-13T20:53:43.220Z,98299.59
2022-12-13T20:56:12.772Z,98297.13
2022-12-13T20:58:40.472Z,98295.34
2022-12-13T21:01:08.195Z,98289.28
2022-12-13T21:03:35.112Z,98289.25
2022-12-13T21:06:01.727Z,98287.50
2022-12-13T21:08:46.893Z,98293.53
2022-12-13T21:11:26.036Z,98277.34
2022-12-13T21:14:09.181Z,98283.22
2022-12-13T21:16:44.240Z,98281.47
2022-12-13T21:19:14.368Z,98279.69
2022-12-13T21:21:40.985Z,98272.72
2022-12-13T21:24:08.339Z,98262.41
2022-12-13T21:26:36.415Z,98269.22
2022-12-13T21:29:06.817Z,98252.13
2022-12-13T21:31:35.414Z,98255.47
2022-12-13T21:34:02.752Z,98251.19
2022-12-13T21:36:32.108Z,98240.91
2022-12-13T21:39:01.484Z,98238.34
2022-12-13T21:41:28.934Z,98235.91
2022-12-13T21:43:56.089Z,98235.03
2022-12-13T21:46:31.299Z,98241.84
2022-12-13T21:49:12.140Z,98246.97
2022-12-13T21:51:44.611Z,98249.53
2022-12-13T21:54:14.383Z,98240.13
2022-12-13T21:57:01.748Z,98240.16
2022-12-13T21:59:28.960Z,98238.44
2022-12-13T22:02:16.853Z,98238.44
2022-12-13T22:04:51.227Z,98238.44
2022-12-13T22:07:19.085Z,98229.88
2022-12-13T22:09:46.603Z,98220.47
2022-12-13T22:12:40.847Z,98219.53
2022-12-13T22:15:10.453Z,98215.41
2022-12-13T22:17:37.867Z,98212.69
2022-12-13T22:20:22.460Z,98201.69
2022-12-13T22:22:49.107Z,98204.13
2022-12-13T22:25:15.829Z,98198.97
2022-12-13T22:27:42.485Z,98195.47
2022-12-13T22:30:10.504Z,98196.28
2022-12-13T22:32:37.219Z,98194.78
2022-12-13T22:35:04.864Z,98192.81
2022-12-13T22:37:32.235Z,98195.53
2022-12-13T22:39:58.911Z,98202.22
2022-12-13T22:42:25.652Z,98192.72
2022-12-13T22:44:52.327Z,98194.47
2022-12-13T22:47:18.983Z,98183.22
2022-12-13T22:49:49.055Z,98183.03
2022-12-13T22:52:16.094Z,98187.25
2022-12-13T22:54:42.752Z,98178.63
2022-12-13T22:57:09.454Z,98175.91
2022-12-13T22:59:36.131Z,98170.75
2022-12-13T23:02:04.031Z,98161.38
2022-12-13T23:04:31.978Z,98158.63
2022-12-13T23:06:58.912Z,98158.84
2022-12-13T23:09:25.573Z,98153.78
2022-12-13T23:12:10.700Z,98158.19
2022-12-13T23:14:37.335Z,98143.69
2022-12-13T23:17:04.441Z,98148.69
2022-12-13T23:19:49.724Z,98140.88
2022-12-13T23:22:18.160Z,98137.31
2022-12-13T23:24:44.825Z,98138.31
2022-12-13T23:27:11.533Z,98129.47
2022-12-13T23:29:38.406Z,98135.56
2022-12-13T23:32:05.130Z,98123.53
2022-12-13T23:34:31.877Z,98132.81
2022-12-13T23:36:58.510Z,98131.75
2022-12-13T23:39:25.335Z,98125.97
2022-12-13T23:41:52.103Z,98128.56
2022-12-13T23:44:18.797Z,98127.75
2022-12-13T23:46:48.539Z,98120.66
2022-12-13T23:49:16.521Z,98118.13
2022-12-13T23:51:43.551Z,98116.16
2022-12-13T23:54:16.392Z,98105.00
2022-12-13T23:56:43.654Z,98102.78
2022-12-13T23:59:10.513Z,98091.53
